Terminal Aerodrome Forecast
Issued by NWS

Home | Current Version | Previous Version | Text Only | Print | Product List | Glossary On
Versions: 1 2 3 4 5 6 7 8 9 10 11 12 13 14 15 16 17 18 19
542
FTAK31 PAJN 270014 AAA
TAFASI
TAF AMD
PASI 270014Z 2700/2724 24006KT 6SM -RA BR BKN015 BKN025
      TEMPO 2700/2704 VRB03KT 2SM -RA BR BKN003 OVC008
     FM270600 31008KT P6SM SCT025 OVC050
     FM271200 34006KT P6SM SCT100
     FM271800 32012KT P6SM SCT250=

USA.gov is the U.S. government's official web portal to all federal, state and local government web resources and services.